Time;durP1;ratioP1;P1;durP2;ratioP2;P2;SDS_P1;SDS_P2;PMS_P1;PMS_P2;Temp;Humidity;BMP_temperature;BMP_pressure;BME280_temperature;BME280_humidity;BME280_pressure;Samples;Min_cycle;Max_cycle;Signal;HPM_P1;HPM_P2
2021/12/25 00:00:46;;;;;;;;;38.25;33.25;;;;;;;;5034241;28;47826;-65
2021/12/25 00:03:12;;;;;;;;;33.25;31.25;;;;;;;;5034064;28;45577;-65
2021/12/25 00:05:37;;;;;;;;;33.75;31.75;;;;;;;;5035888;28;45436;-67
2021/12/25 00:08:02;;;;;;;;;32.75;30.50;;;;;;;;5034531;28;46183;-66
2021/12/25 00:10:30;;;;;;;;;33.25;31.00;;;;;;;;5033895;28;45491;-66
2021/12/25 00:12:55;;;;;;;;;38.25;28.50;;;;;;;;5033980;28;45733;-64
2021/12/25 00:15:21;;;;;;;;;31.00;24.50;;;;;;;;5033969;28;45570;-66
2021/12/25 00:17:46;;;;;;;;;30.50;23.75;;;;;;;;5033956;28;47151;-66
2021/12/25 00:20:12;;;;;;;;;25.00;24.75;;;;;;;;5035353;28;45367;-65
2021/12/25 00:22:37;;;;;;;;;24.25;22.00;;;;;;;;5033659;28;45364;-66
2021/12/25 00:25:04;;;;;;;;;27.00;25.50;;;;;;;;5032372;28;45486;-65
2021/12/25 00:27:47;;;;;;;;;29.00;26.50;;;;;;;;5032034;28;46157;-66
2021/12/25 00:30:23;;;;;;;;;24.25;21.75;;;;;;;;5019175;28;45412;-66
2021/12/25 00:33:06;;;;;;;;;28.75;27.00;;;;;;;;5033007;28;45491;-65
2021/12/25 00:35:31;;;;;;;;;21.50;20.50;;;;;;;;5031247;28;45574;-66
2021/12/25 00:37:56;;;;;;;;;26.50;22.00;;;;;;;;5033089;28;47113;-65
2021/12/25 00:40:22;;;;;;;;;25.50;24.00;;;;;;;;5033232;28;45463;-65
2021/12/25 00:42:48;;;;;;;;;30.00;25.00;;;;;;;;5033566;28;45420;-65
2021/12/25 00:45:13;;;;;;;;;29.50;25.00;;;;;;;;5032961;28;45419;-66
2021/12/25 00:47:38;;;;;;;;;21.25;17.50;;;;;;;;5034653;28;45532;-66
2021/12/25 00:50:04;;;;;;;;;25.00;22.00;;;;;;;;5033872;28;45401;-65
2021/12/25 00:52:29;;;;;;;;;26.25;24.75;;;;;;;;5033370;28;45428;-67
2021/12/25 00:54:54;;;;;;;;;25.25;22.25;;;;;;;;5033639;28;45566;-64
2021/12/25 00:57:20;;;;;;;;;23.00;21.50;;;;;;;;5015207;28;47065;-66
2021/12/25 00:59:45;;;;;;;;;28.75;25.00;;;;;;;;5033116;28;45548;-66
2021/12/25 01:02:10;;;;;;;;;22.50;22.50;;;;;;;;5034585;28;45333;-66
2021/12/25 01:04:35;;;;;;;;;21.25;20.00;;;;;;;;5031661;28;45397;-65
2021/12/25 01:07:01;;;;;;;;;26.00;24.00;;;;;;;;5031351;28;47082;-66
2021/12/25 01:09:26;;;;;;;;;28.75;27.00;;;;;;;;5032729;28;45476;-66
2021/12/25 01:11:52;;;;;;;;;28.25;24.50;;;;;;;;5033076;28;45455;-66
2021/12/25 01:14:43;;;;;;;;;35.00;30.50;;;;;;;;5035144;28;45530;-66
2021/12/25 01:17:24;;;;;;;;;24.75;21.50;;;;;;;;5033496;28;46483;-66
2021/12/25 01:30:46;;;;;;;;;30.75;28.25;;;;;;;;5032501;28;45335;-66
2021/12/25 01:41:14;;;;;;;;;25.75;25.50;;;;;;;;5032551;28;45472;-66
2021/12/25 01:49:04;;;;;;;;;29.75;25.50;;;;;;;;5032804;28;45836;-66
2021/12/25 01:51:29;;;;;;;;;27.75;25.75;;;;;;;;5032276;28;45468;-66
2021/12/25 01:53:55;;;;;;;;;30.25;30.25;;;;;;;;5032349;28;45310;-65
2021/12/25 01:56:20;;;;;;;;;37.00;33.00;;;;;;;;5034457;28;45578;-66
2021/12/25 01:58:45;;;;;;;;;29.75;26.50;;;;;;;;5013897;28;47059;-64
2021/12/25 02:01:11;;;;;;;;;32.00;30.00;;;;;;;;5031921;28;45462;-66
2021/12/25 02:03:37;;;;;;;;;30.25;29.00;;;;;;;;5032693;28;45402;-66
2021/12/25 02:06:04;;;;;;;;;34.50;30.50;;;;;;;;5032756;28;45351;-66
2021/12/25 02:08:29;;;;;;;;;34.25;30.25;;;;;;;;5030172;28;46255;-66
2021/12/25 02:10:55;;;;;;;;;36.75;30.50;;;;;;;;5033509;28;45340;-66
2021/12/25 02:13:21;;;;;;;;;29.75;27.00;;;;;;;;5035633;28;45361;-66
2021/12/25 02:15:49;;;;;;;;;14.25;14.25;;;;;;;;5035673;28;45333;-66
2021/12/25 02:18:26;;;;;;;;;21.00;18.75;;;;;;;;5035662;28;47205;-66
2021/12/25 02:21:08;;;;;;;;;14.25;12.00;;;;;;;;5035956;28;45511;-66
2021/12/25 02:23:33;;;;;;;;;13.50;11.75;;;;;;;;5034040;28;45471;-66
2021/12/25 02:25:59;;;;;;;;;12.75;12.75;;;;;;;;5019191;28;45571;-65
2021/12/25 02:28:25;;;;;;;;;13.25;12.00;;;;;;;;5035523;28;45460;-65
2021/12/25 02:30:52;;;;;;;;;16.25;11.50;;;;;;;;5035541;28;45347;-66
2021/12/25 02:33:17;;;;;;;;;13.50;12.25;;;;;;;;5035888;28;45452;-66
2021/12/25 02:35:43;;;;;;;;;12.00;11.00;;;;;;;;5036549;28;45238;-66
2021/12/25 02:38:09;;;;;;;;;13.00;11.00;;;;;;;;5036983;28;45282;-65
2021/12/25 02:40:34;;;;;;;;;13.75;12.75;;;;;;;;5035346;28;45425;-65
2021/12/25 02:42:59;;;;;;;;;14.50;13.50;;;;;;;;5035231;28;45297;-66
2021/12/25 02:45:25;;;;;;;;;11.50;11.50;;;;;;;;5035952;28;45344;-66
2021/12/25 02:47:53;;;;;;;;;11.25;11.25;;;;;;;;5035589;28;46082;-66
2021/12/25 02:50:23;;;;;;;;;13.25;13.00;;;;;;;;5037639;28;45350;-66
2021/12/25 02:52:49;;;;;;;;;15.50;12.00;;;;;;;;5035336;28;45349;-65
2021/12/25 02:55:14;;;;;;;;;17.00;13.25;;;;;;;;5035336;28;45516;-66
2021/12/25 02:57:40;;;;;;;;;15.75;12.50;;;;;;;;5034933;28;45827;-66
2021/12/25 03:00:08;;;;;;;;;13.75;13.50;;;;;;;;5033770;28;45510;-66
2021/12/25 03:02:34;;;;;;;;;14.25;11.50;;;;;;;;5037055;28;45394;-66
2021/12/25 03:04:59;;;;;;;;;15.00;14.00;;;;;;;;5034274;28;45290;-66
2021/12/25 03:07:24;;;;;;;;;11.00;11.00;;;;;;;;5034997;28;45488;-66
2021/12/25 03:09:50;;;;;;;;;11.00;11.00;;;;;;;;5035150;28;45353;-66
2021/12/25 03:12:17;;;;;;;;;17.00;14.00;;;;;;;;5034968;28;45290;-66
2021/12/25 03:15:26;;;;;;;;;14.25;12.50;;;;;;;;5036010;28;45352;-65
2021/12/25 03:17:35;;;;;;;;;15.25;14.25;;;;;;;;5029110;28;45366;-65
2021/12/25 03:20:01;;;;;;;;;13.75;13.00;;;;;;;;5033862;28;45586;-66
2021/12/25 03:22:26;;;;;;;;;15.50;14.00;;;;;;;;5034717;28;45475;-65
2021/12/25 03:24:51;;;;;;;;;14.25;13.25;;;;;;;;5017089;28;45615;-65
2021/12/25 03:27:17;;;;;;;;;13.00;11.75;;;;;;;;5034439;28;47209;-65
2021/12/25 03:29:42;;;;;;;;;16.50;12.00;;;;;;;;5035928;28;45415;-66
2021/12/25 03:32:08;;;;;;;;;17.00;15.50;;;;;;;;5035988;28;45474;-65
2021/12/25 03:34:33;;;;;;;;;15.25;15.00;;;;;;;;5034859;28;45309;-66
2021/12/25 03:36:59;;;;;;;;;12.00;12.00;;;;;;;;5034568;28;47383;-66
2021/12/25 03:39:24;;;;;;;;;17.00;15.25;;;;;;;;5033215;28;45534;-65
2021/12/25 03:41:49;;;;;;;;;8.50;8.50;;;;;;;;5035157;28;45332;-66
2021/12/25 03:44:14;;;;;;;;;13.50;13.00;;;;;;;;5035076;28;45500;-65
2021/12/25 03:46:40;;;;;;;;;14.75;14.00;;;;;;;;5034357;28;46158;-65
2021/12/25 03:49:24;;;;;;;;;14.75;14.25;;;;;;;;5034310;28;47045;-66
2021/12/25 03:57:43;;;;;;;;;18.25;15.00;;;;;;;;5020126;28;45395;-66
2021/12/25 04:00:09;;;;;;;;;15.75;11.50;;;;;;;;5018492;28;45376;-65
2021/12/25 04:02:36;;;;;;;;;13.75;10.00;;;;;;;;5018084;28;45276;-66
2021/12/25 04:05:03;;;;;;;;;12.50;11.00;;;;;;;;5033525;28;45651;-66
2021/12/25 04:10:03;;;;;;;;;10.00;9.00;;;;;;;;5034078;28;45443;-65
2021/12/25 04:12:29;;;;;;;;;11.00;10.00;;;;;;;;5034398;28;45539;-66
2021/12/25 04:14:54;;;;;;;;;15.50;13.75;;;;;;;;5034351;28;45642;-65
2021/12/25 04:17:19;;;;;;;;;14.00;13.00;;;;;;;;5017786;28;47498;-66
2021/12/25 04:19:44;;;;;;;;;12.75;12.75;;;;;;;;5014577;28;45569;-65
2021/12/25 04:22:16;;;;;;;;;16.00;13.25;;;;;;;;5032650;28;45481;-66
2021/12/25 04:24:44;;;;;;;;;14.50;14.50;;;;;;;;5033588;28;45533;-66
2021/12/25 04:27:13;;;;;;;;;19.00;15.25;;;;;;;;5033940;28;46176;-66
2021/12/25 04:30:04;;;;;;;;;15.00;14.25;;;;;;;;5035555;28;45340;-65
2021/12/25 04:47:56;;;;;;;;;17.00;16.75;;;;;;;;5033503;28;45319;-66
2021/12/25 04:49:26;;;;;;;;;16.00;14.75;;;;;;;;5033500;28;45362;-66
2021/12/25 05:05:01;;;;;;;;;16.00;14.00;;;;;;;;5033739;28;45550;-66
2021/12/25 05:07:26;;;;;;;;;23.25;19.25;;;;;;;;5033136;28;45472;-66
2021/12/25 05:09:53;;;;;;;;;18.50;16.50;;;;;;;;5033155;28;46129;-66
2021/12/25 05:12:18;;;;;;;;;18.75;18.75;;;;;;;;5033532;28;45366;-66
2021/12/25 05:14:44;;;;;;;;;19.00;17.25;;;;;;;;5034060;28;45293;-66
2021/12/25 05:17:11;;;;;;;;;20.75;16.75;;;;;;;;5034815;28;45645;-66
2021/12/25 05:19:36;;;;;;;;;21.50;17.50;;;;;;;;5033292;28;46165;-66
2021/12/25 05:22:01;;;;;;;;;22.50;19.00;;;;;;;;5032677;28;45366;-66
2021/12/25 05:24:27;;;;;;;;;13.75;13.75;;;;;;;;5033504;28;45484;-66
2021/12/25 05:26:56;;;;;;;;;20.75;15.25;;;;;;;;5033311;28;45362;-66
2021/12/25 05:29:24;;;;;;;;;22.50;20.25;;;;;;;;5035101;28;46195;-66
2021/12/25 05:31:49;;;;;;;;;25.50;20.75;;;;;;;;5032925;28;45451;-65
2021/12/25 05:34:14;;;;;;;;;19.00;17.25;;;;;;;;5033128;28;45294;-65
2021/12/25 05:36:40;;;;;;;;;22.75;20.75;;;;;;;;5031445;28;45423;-66
2021/12/25 05:39:09;;;;;;;;;23.50;17.25;;;;;;;;5031420;28;46231;-66
2021/12/25 05:41:34;;;;;;;;;19.75;16.25;;;;;;;;5034939;28;45366;-66
2021/12/25 05:43:59;;;;;;;;;18.00;15.75;;;;;;;;5033255;28;45523;-65
2021/12/25 05:46:24;;;;;;;;;18.25;15.75;;;;;;;;5036729;28;45384;-65
2021/12/25 05:48:50;;;;;;;;;15.00;13.50;;;;;;;;5035840;28;45387;-66
2021/12/25 05:51:17;;;;;;;;;13.25;12.00;;;;;;;;5036208;28;45463;-65
2021/12/25 05:53:42;;;;;;;;;17.50;15.25;;;;;;;;5019925;28;45324;-65
2021/12/25 05:56:07;;;;;;;;;18.00;15.50;;;;;;;;5036831;28;45429;-65
2021/12/25 05:58:32;;;;;;;;;16.00;13.50;;;;;;;;5036281;28;45327;-65
2021/12/25 06:00:58;;;;;;;;;16.25;15.00;;;;;;;;5036037;28;45258;-65
2021/12/25 06:03:23;;;;;;;;;21.75;18.00;;;;;;;;5036336;28;45222;-65
2021/12/25 06:05:48;;;;;;;;;15.25;15.25;;;;;;;;5036178;28;45634;-65
2021/12/25 06:08:14;;;;;;;;;13.00;12.00;;;;;;;;5038334;28;46305;-65
2021/12/25 06:10:40;;;;;;;;;14.00;13.00;;;;;;;;5035193;28;45482;-65
2021/12/25 06:13:07;;;;;;;;;19.50;15.50;;;;;;;;5035832;28;45514;-65
2021/12/25 06:15:32;;;;;;;;;16.00;14.75;;;;;;;;5034757;28;45316;-65
2021/12/25 06:17:58;;;;;;;;;14.25;13.00;;;;;;;;5035059;28;45666;-65
2021/12/25 06:20:23;;;;;;;;;14.75;13.75;;;;;;;;5036465;28;45413;-65
2021/12/25 06:22:48;;;;;;;;;16.50;12.25;;;;;;;;5035806;28;45378;-65
2021/12/25 06:25:14;;;;;;;;;15.00;13.50;;;;;;;;5035426;28;45537;-65
2021/12/25 06:27:39;;;;;;;;;18.75;12.75;;;;;;;;5035428;28;46377;-65
2021/12/25 06:30:05;;;;;;;;;15.25;13.50;;;;;;;;5035809;28;45424;-65
2021/12/25 06:32:31;;;;;;;;;13.75;11.50;;;;;;;;5037357;28;45333;-65
2021/12/25 06:34:56;;;;;;;;;16.50;15.00;;;;;;;;5034864;28;45290;-67
2021/12/25 06:37:23;;;;;;;;;14.50;13.25;;;;;;;;5034790;28;46900;-65
2021/12/25 06:39:48;;;;;;;;;12.75;12.00;;;;;;;;5035365;28;45289;-65
2021/12/25 06:42:14;;;;;;;;;17.75;17.50;;;;;;;;5035647;28;45219;-66
2021/12/25 06:44:39;;;;;;;;;12.25;11.25;;;;;;;;5036901;28;45546;-66
2021/12/25 06:47:05;;;;;;;;;19.50;15.50;;;;;;;;5035776;28;46214;-65
2021/12/25 06:49:30;;;;;;;;;18.00;14.25;;;;;;;;5034686;28;45183;-66
2021/12/25 06:51:55;;;;;;;;;19.00;16.50;;;;;;;;5016801;28;45564;-65
2021/12/25 06:54:21;;;;;;;;;18.50;15.00;;;;;;;;5033329;28;45353;-65
2021/12/25 06:56:47;;;;;;;;;18.75;15.75;;;;;;;;5034513;28;46407;-65
2021/12/25 06:59:13;;;;;;;;;18.25;16.75;;;;;;;;5034747;28;45368;-65
2021/12/25 07:01:38;;;;;;;;;12.75;12.00;;;;;;;;5035007;28;45404;-65
2021/12/25 07:04:04;;;;;;;;;17.50;17.50;;;;;;;;5034930;28;45441;-65
2021/12/25 07:06:30;;;;;;;;;17.00;14.75;;;;;;;;5035047;28;46171;-64
2021/12/25 07:08:55;;;;;;;;;19.00;17.50;;;;;;;;5035277;28;45408;-64
2021/12/25 07:11:20;;;;;;;;;20.50;18.25;;;;;;;;5036787;28;45465;-64
2021/12/25 07:13:46;;;;;;;;;17.75;15.75;;;;;;;;5034883;28;45504;-64
2021/12/25 07:16:11;;;;;;;;;16.50;14.75;;;;;;;;5034544;28;46934;-64
2021/12/25 07:18:37;;;;;;;;;17.25;15.75;;;;;;;;5034606;28;45269;-64
2021/12/25 07:21:03;;;;;;;;;13.50;13.50;;;;;;;;5035210;28;45624;-65
2021/12/25 07:23:28;;;;;;;;;18.00;15.00;;;;;;;;5036456;28;45540;-64
2021/12/25 07:25:53;;;;;;;;;16.25;13.50;;;;;;;;5034109;28;46314;-65
2021/12/25 07:28:18;;;;;;;;;18.25;15.50;;;;;;;;5034625;28;45457;-67
2021/12/25 07:30:44;;;;;;;;;16.75;14.00;;;;;;;;5033987;28;45398;-66
2021/12/25 07:33:09;;;;;;;;;16.50;15.00;;;;;;;;5032440;28;45322;-68
2021/12/25 07:35:34;;;;;;;;;16.25;16.25;;;;;;;;5036097;28;45469;-68
2021/12/25 07:37:59;;;;;;;;;17.50;16.00;;;;;;;;5032885;28;45271;-65
2021/12/25 07:40:25;;;;;;;;;14.50;13.75;;;;;;;;5034102;28;45427;-66
2021/12/25 07:42:50;;;;;;;;;19.00;19.00;;;;;;;;5034113;28;45418;-68
2021/12/25 07:45:15;;;;;;;;;17.50;15.75;;;;;;;;5034424;28;46012;-66
2021/12/25 07:47:46;;;;;;;;;17.75;15.00;;;;;;;;5035651;28;45353;-66
2021/12/25 07:50:13;;;;;;;;;15.75;15.50;;;;;;;;5035797;28;45375;-66
2021/12/25 07:52:38;;;;;;;;;20.00;16.25;;;;;;;;5033942;28;45497;-68
2021/12/25 07:55:03;;;;;;;;;18.75;14.00;;;;;;;;5033892;28;46560;-66
2021/12/25 07:57:29;;;;;;;;;19.00;18.50;;;;;;;;5034203;28;45431;-66
2021/12/25 07:59:55;;;;;;;;;20.50;16.00;;;;;;;;5034254;28;45512;-67
2021/12/25 08:02:20;;;;;;;;;18.50;18.25;;;;;;;;5035310;28;45453;-66
2021/12/25 08:04:45;;;;;;;;;21.25;14.00;;;;;;;;5033261;28;45930;-79
2021/12/25 08:07:11;;;;;;;;;17.50;15.00;;;;;;;;5033123;28;45218;-67
2021/12/25 08:09:37;;;;;;;;;18.75;18.25;;;;;;;;5032523;28;45523;-67
2021/12/25 08:12:03;;;;;;;;;21.75;18.75;;;;;;;;5016357;28;45431;-67
2021/12/25 08:14:29;;;;;;;;;20.00;17.00;;;;;;;;5034993;28;46341;-68
2021/12/25 08:16:55;;;;;;;;;21.75;18.50;;;;;;;;5031229;28;45394;-69
2021/12/25 08:19:21;;;;;;;;;25.25;23.00;;;;;;;;5033013;28;45447;-68
2021/12/25 08:21:46;;;;;;;;;19.75;18.25;;;;;;;;5032707;28;45285;-68
2021/12/25 08:24:11;;;;;;;;;20.00;18.25;;;;;;;;5032649;28;46976;-68
2021/12/25 08:26:37;;;;;;;;;21.50;19.00;;;;;;;;5033877;28;45272;-67
2021/12/25 08:29:02;;;;;;;;;16.50;16.00;;;;;;;;5032302;28;45376;-68
2021/12/25 08:31:27;;;;;;;;;18.50;18.50;;;;;;;;5032723;28;45291;-67
2021/12/25 08:33:53;;;;;;;;;13.50;13.50;;;;;;;;5032845;28;46157;-67
2021/12/25 08:36:18;;;;;;;;;18.00;16.25;;;;;;;;5033064;28;45386;-68
2021/12/25 08:38:43;;;;;;;;;19.00;16.75;;;;;;;;5033989;28;45326;-68
2021/12/25 08:41:09;;;;;;;;;20.50;18.50;;;;;;;;5034134;28;45474;-67
2021/12/25 08:43:37;;;;;;;;;27.00;23.75;;;;;;;;5032558;28;46986;-67
2021/12/25 08:46:11;;;;;;;;;20.00;18.75;;;;;;;;5031951;28;45406;-66
2021/12/25 08:48:36;;;;;;;;;25.00;19.75;;;;;;;;5033402;28;45329;-68
2021/12/25 08:51:02;;;;;;;;;21.75;19.00;;;;;;;;5032095;28;45593;-67
2021/12/25 08:53:28;;;;;;;;;18.00;18.00;;;;;;;;5034431;28;46369;-67
2021/12/25 08:55:55;;;;;;;;;23.25;23.00;;;;;;;;5031199;28;45422;-67
2021/12/25 08:58:20;;;;;;;;;21.50;19.50;;;;;;;;5033190;28;45416;-67
2021/12/25 09:00:47;;;;;;;;;22.00;19.00;;;;;;;;5032688;28;45529;-67
2021/12/25 09:03:12;;;;;;;;;23.75;19.75;;;;;;;;5032731;28;47162;-68
2021/12/25 09:05:37;;;;;;;;;20.00;18.75;;;;;;;;5034135;28;45290;-68
2021/12/25 09:08:03;;;;;;;;;22.50;20.00;;;;;;;;5033592;28;45431;-68
2021/12/25 09:10:29;;;;;;;;;21.50;20.00;;;;;;;;5032863;28;45379;-66
2021/12/25 09:12:57;;;;;;;;;22.00;18.75;;;;;;;;5032274;28;47688;-67
2021/12/25 09:15:23;;;;;;;;;20.00;16.00;;;;;;;;5032567;28;45487;-67
2021/12/25 09:17:48;;;;;;;;;20.00;18.25;;;;;;;;5032955;28;45333;-66
2021/12/25 09:20:18;;;;;;;;;20.75;19.75;;;;;;;;5033622;28;45303;-66
2021/12/25 09:22:44;;;;;;;;;18.75;15.50;;;;;;;;5031747;28;45562;-66
2021/12/25 09:25:09;;;;;;;;;23.50;18.75;;;;;;;;5031343;28;45342;-68
2021/12/25 09:27:34;;;;;;;;;19.00;16.25;;;;;;;;5032338;28;45444;-67
2021/12/25 09:30:00;;;;;;;;;15.25;14.25;;;;;;;;5031598;28;45416;-67
2021/12/25 09:32:25;;;;;;;;;23.50;22.50;;;;;;;;5033111;28;46114;-68
2021/12/25 09:34:51;;;;;;;;;17.50;15.50;;;;;;;;5030636;28;45236;-67
2021/12/25 09:37:16;;;;;;;;;22.00;20.00;;;;;;;;5031553;28;45327;-68
2021/12/25 09:39:41;;;;;;;;;18.75;18.00;;;;;;;;5032009;28;45436;-67
2021/12/25 09:42:07;;;;;;;;;20.50;18.25;;;;;;;;5031854;28;46999;-66
2021/12/25 09:44:32;;;;;;;;;21.25;20.25;;;;;;;;5033062;28;45490;-67
2021/12/25 09:46:57;;;;;;;;;17.00;14.75;;;;;;;;5032272;28;45305;-67
2021/12/25 09:49:23;;;;;;;;;23.25;18.75;;;;;;;;5032006;28;45452;-67
2021/12/25 09:51:48;;;;;;;;;25.50;18.25;;;;;;;;5031342;28;45457;-68
2021/12/25 09:54:15;;;;;;;;;17.25;17.25;;;;;;;;5032159;28;45416;-67
2021/12/25 09:56:42;;;;;;;;;33.00;23.50;;;;;;;;5033135;28;45306;-68
2021/12/25 09:59:10;;;;;;;;;22.50;17.00;;;;;;;;5032331;28;45432;-67
2021/12/25 10:01:46;;;;;;;;;21.75;21.75;;;;;;;;5031668;28;45530;-68
2021/12/25 10:04:31;;;;;;;;;15.75;15.75;;;;;;;;5031491;28;45324;-76
2021/12/25 10:06:57;;;;;;;;;22.75;19.75;;;;;;;;5030837;28;45484;-71
2021/12/25 10:09:26;;;;;;;;;24.75;21.00;;;;;;;;5030711;28;45479;-72
2021/12/25 10:11:57;;;;;;;;;20.75;19.75;;;;;;;;5031401;28;45348;-71
2021/12/25 10:14:25;;;;;;;;;20.50;17.00;;;;;;;;5032163;28;45385;-68
2021/12/25 10:16:50;;;;;;;;;17.75;17.75;;;;;;;;5031326;28;45352;-67
2021/12/25 10:19:16;;;;;;;;;23.75;19.50;;;;;;;;5031759;28;45332;-70
2021/12/25 10:21:42;;;;;;;;;18.00;15.75;;;;;;;;5031889;28;46245;-69
2021/12/25 10:24:14;;;;;;;;;18.75;15.50;;;;;;;;5031397;28;45488;-67
2021/12/25 10:26:41;;;;;;;;;26.00;22.75;;;;;;;;5032266;28;45486;-68
2021/12/25 10:29:18;;;;;;;;;22.75;20.50;;;;;;;;5031935;28;45208;-67
2021/12/25 10:31:43;;;;;;;;;21.25;18.25;;;;;;;;5032070;28;46323;-67
2021/12/25 10:34:12;;;;;;;;;23.75;20.75;;;;;;;;5016863;28;45552;-68
2021/12/25 10:36:39;;;;;;;;;32.25;26.75;;;;;;;;5034771;28;45359;-68
2021/12/25 10:39:04;;;;;;;;;25.00;21.75;;;;;;;;5034044;28;45452;-68
2021/12/25 10:41:34;;;;;;;;;19.75;18.75;;;;;;;;5035904;28;47861;-67
2021/12/25 10:44:28;;;;;;;;;18.75;15.75;;;;;;;;5033667;28;45426;-69
2021/12/25 10:47:05;;;;;;;;;20.75;20.25;;;;;;;;5013166;28;45538;-67
2021/12/25 10:49:34;;;;;;;;;19.00;16.00;;;;;;;;5032647;28;45468;-68
2021/12/25 10:52:27;;;;;;;;;20.00;17.50;;;;;;;;5032085;28;46262;-67
2021/12/25 10:54:52;;;;;;;;;19.50;16.50;;;;;;;;5029463;28;45365;-67
2021/12/25 10:57:30;;;;;;;;;19.00;17.50;;;;;;;;5033722;28;45294;-67
2021/12/25 10:59:55;;;;;;;;;14.50;13.50;;;;;;;;5034037;28;45490;-71
2021/12/25 11:02:40;;;;;;;;;12.75;10.50;;;;;;;;5036272;28;45342;-68
2021/12/25 11:05:15;;;;;;;;;21.00;15.50;;;;;;;;5033504;28;45392;-68
2021/12/25 11:07:40;;;;;;;;;14.75;13.50;;;;;;;;5034280;28;45487;-69
2021/12/25 11:10:10;;;;;;;;;17.00;17.00;;;;;;;;5034006;28;45487;-68
2021/12/25 11:12:36;;;;;;;;;15.75;15.75;;;;;;;;5033570;28;45399;-68
2021/12/25 11:15:12;;;;;;;;;13.75;12.50;;;;;;;;5033800;28;45513;-66
2021/12/25 11:17:39;;;;;;;;;17.75;15.75;;;;;;;;5032516;28;45373;-68
2021/12/25 11:20:04;;;;;;;;;14.75;13.50;;;;;;;;5033553;28;45278;-67
2021/12/25 11:22:56;;;;;;;;;20.50;14.25;;;;;;;;5033745;28;47096;-73
2021/12/25 11:25:25;;;;;;;;;14.00;14.00;;;;;;;;5027640;28;45503;-65
2021/12/25 11:27:51;;;;;;;;;15.50;14.25;;;;;;;;5031877;28;45523;-66
2021/12/25 11:30:18;;;;;;;;;19.50;16.25;;;;;;;;5032037;28;45586;-68
2021/12/25 11:32:44;;;;;;;;;13.75;12.00;;;;;;;;5034855;28;45665;-66
2021/12/25 11:35:10;;;;;;;;;17.75;14.00;;;;;;;;5035285;28;45416;-66
2021/12/25 11:37:36;;;;;;;;;13.75;11.75;;;;;;;;5033627;28;45320;-66
2021/12/25 11:40:01;;;;;;;;;16.75;16.75;;;;;;;;5034737;28;45524;-66
2021/12/25 11:42:28;;;;;;;;;18.50;16.25;;;;;;;;5045544;28;46258;-67
2021/12/25 11:44:55;;;;;;;;;16.25;13.75;;;;;;;;5033336;28;45586;-67
2021/12/25 11:47:38;;;;;;;;;13.00;13.00;;;;;;;;5041157;28;45348;-68
2021/12/25 11:50:14;;;;;;;;;20.25;19.00;;;;;;;;5032420;28;45617;-67
2021/12/25 11:52:55;;;;;;;;;21.25;18.75;;;;;;;;5033175;28;47082;-72
2021/12/25 11:55:49;;;;;;;;;20.00;18.25;;;;;;;;5032584;28;45431;-74
2021/12/25 11:58:39;;;;;;;;;18.75;18.75;;;;;;;;5032735;28;45457;-74
2021/12/25 12:01:18;;;;;;;;;17.50;14.50;;;;;;;;5025236;28;45467;-74
2021/12/25 12:03:46;;;;;;;;;16.75;16.75;;;;;;;;5032571;28;46975;-70
2021/12/25 12:06:14;;;;;;;;;14.25;14.25;;;;;;;;5031824;28;45371;-72
2021/12/25 12:08:55;;;;;;;;;14.25;14.00;;;;;;;;5034251;28;45441;-77
2021/12/25 12:11:22;;;;;;;;;22.75;20.00;;;;;;;;5034308;28;45225;-75
2021/12/25 12:14:07;;;;;;;;;24.50;22.75;;;;;;;;5039469;28;47229;-66
2021/12/25 12:16:37;;;;;;;;;37.00;31.75;;;;;;;;5037107;28;45583;-68
2021/12/25 12:19:02;;;;;;;;;20.00;18.50;;;;;;;;5035240;28;45166;-71
2021/12/25 12:21:34;;;;;;;;;21.75;18.75;;;;;;;;5037863;28;45274;-87
2021/12/25 12:24:27;;;;;;;;;16.00;15.00;;;;;;;;5035232;28;46209;-77
2021/12/25 12:26:53;;;;;;;;;26.25;22.00;;;;;;;;5047573;28;45491;-75
2021/12/25 12:29:36;;;;;;;;;15.75;14.50;;;;;;;;5036485;28;45521;-71
2021/12/25 12:32:02;;;;;;;;;16.75;14.25;;;;;;;;5036433;28;45552;-74
2021/12/25 12:34:30;;;;;;;;;15.25;14.75;;;;;;;;5039240;28;46849;-73
2021/12/25 12:37:13;;;;;;;;;17.25;15.75;;;;;;;;5034599;28;45582;-82
2021/12/25 12:39:39;;;;;;;;;20.25;17.25;;;;;;;;5026134;28;45474;-81
2021/12/25 12:42:08;;;;;;;;;16.25;15.00;;;;;;;;5031645;28;45378;-73
2021/12/25 12:44:34;;;;;;;;;23.25;18.75;;;;;;;;5032996;28;47516;-74
2021/12/25 12:47:01;;;;;;;;;21.25;21.00;;;;;;;;5030025;28;45310;-75
2021/12/25 12:49:32;;;;;;;;;19.50;15.50;;;;;;;;5031400;28;45488;-75
2021/12/25 12:52:09;;;;;;;;;21.00;20.25;;;;;;;;5030427;28;45277;-75
2021/12/25 12:54:40;;;;;;;;;14.50;14.50;;;;;;;;5030617;28;45635;-78
2021/12/25 12:57:06;;;;;;;;;18.25;13.50;;;;;;;;5036784;28;45989;-72
2021/12/25 12:59:41;;;;;;;;;24.75;20.25;;;;;;;;5033834;28;45397;-71
2021/12/25 13:02:06;;;;;;;;;20.75;15.50;;;;;;;;5031213;28;45332;-75
2021/12/25 13:04:40;;;;;;;;;20.25;18.25;;;;;;;;5031148;28;45436;-81
2021/12/25 13:07:10;;;;;;;;;18.00;14.75;;;;;;;;5030525;28;45412;-73
2021/12/25 13:09:40;;;;;;;;;16.25;14.50;;;;;;;;5032727;28;45595;-73
2021/12/25 13:12:19;;;;;;;;;26.75;23.50;;;;;;;;5022592;28;45448;-82
2021/12/25 13:14:44;;;;;;;;;19.75;18.25;;;;;;;;5029616;28;45926;-79
2021/12/25 13:17:09;;;;;;;;;23.25;21.50;;;;;;;;5032050;28;45464;-77
2021/12/25 13:19:45;;;;;;;;;17.75;17.75;;;;;;;;5013928;28;45388;-80
2021/12/25 13:22:13;;;;;;;;;20.50;20.50;;;;;;;;5030231;28;45483;-73
2021/12/25 13:24:38;;;;;;;;;16.75;16.75;;;;;;;;5012966;28;46239;-76
2021/12/25 13:27:03;;;;;;;;;17.75;17.50;;;;;;;;5027200;28;45367;-74
2021/12/25 13:29:31;;;;;;;;;18.50;15.75;;;;;;;;5032299;28;45540;-73
2021/12/25 13:31:56;;;;;;;;;25.25;22.00;;;;;;;;5031158;28;45462;-75
2021/12/25 13:34:23;;;;;;;;;26.50;23.50;;;;;;;;5035637;28;45678;-72
2021/12/25 13:36:50;;;;;;;;;26.75;24.00;;;;;;;;5034900;28;45607;-69
2021/12/25 13:39:17;;;;;;;;;23.25;18.50;;;;;;;;5031653;28;45406;-66
2021/12/25 13:41:44;;;;;;;;;22.25;19.75;;;;;;;;5038056;28;45547;-66
2021/12/25 13:44:22;;;;;;;;;17.75;16.50;;;;;;;;5034610;28;47131;-66
2021/12/25 13:47:01;;;;;;;;;21.50;19.25;;;;;;;;5033504;28;45358;-67
2021/12/25 13:49:43;;;;;;;;;23.75;21.50;;;;;;;;5035271;28;45857;-68
2021/12/25 13:52:08;;;;;;;;;26.50;20.75;;;;;;;;5034893;28;45432;-67
2021/12/25 13:54:35;;;;;;;;;21.25;18.00;;;;;;;;5033109;28;46232;-67
2021/12/25 13:57:00;;;;;;;;;20.50;18.75;;;;;;;;5032170;28;45416;-68
2021/12/25 13:59:26;;;;;;;;;17.00;16.50;;;;;;;;5033359;28;45658;-67
2021/12/25 14:02:03;;;;;;;;;22.50;21.75;;;;;;;;5029911;28;45499;-67
2021/12/25 14:04:28;;;;;;;;;22.00;20.50;;;;;;;;5029405;28;47005;-67
2021/12/25 14:06:53;;;;;;;;;20.50;19.75;;;;;;;;5040600;28;45498;-68
2021/12/25 14:09:19;;;;;;;;;24.75;23.00;;;;;;;;5038684;28;45349;-68
2021/12/25 14:11:48;;;;;;;;;25.00;23.00;;;;;;;;5040622;28;45298;-67
2021/12/25 14:14:15;;;;;;;;;18.00;17.75;;;;;;;;5035351;28;46452;-67
2021/12/25 14:16:41;;;;;;;;;25.75;21.25;;;;;;;;5035866;28;45455;-68
2021/12/25 14:19:07;;;;;;;;;27.00;20.75;;;;;;;;5038373;28;45565;-68
2021/12/25 14:21:32;;;;;;;;;18.50;17.25;;;;;;;;5034018;28;45527;-68
2021/12/25 14:23:59;;;;;;;;;25.75;22.25;;;;;;;;5034671;28;46151;-67
2021/12/25 14:26:24;;;;;;;;;31.25;28.00;;;;;;;;5044422;28;45492;-68
2021/12/25 14:28:50;;;;;;;;;31.50;30.75;;;;;;;;5037955;28;46360;-68
2021/12/25 14:31:17;;;;;;;;;27.50;27.50;;;;;;;;5040653;28;45527;-68
2021/12/25 14:33:56;;;;;;;;;31.75;29.75;;;;;;;;5017390;28;48000;-68
2021/12/25 14:36:22;;;;;;;;;37.00;31.75;;;;;;;;5045119;28;45583;-67
2021/12/25 14:38:48;;;;;;;;;30.25;26.50;;;;;;;;5036355;28;45506;-68
2021/12/25 14:41:15;;;;;;;;;33.75;25.75;;;;;;;;5041174;28;46655;-68
2021/12/25 14:43:41;;;;;;;;;31.75;28.25;;;;;;;;5035145;28;47499;-67
2021/12/25 14:46:09;;;;;;;;;29.00;27.00;;;;;;;;5019107;28;45411;-69
2021/12/25 14:48:37;;;;;;;;;30.50;29.00;;;;;;;;5037457;28;45503;-67
2021/12/25 14:51:04;;;;;;;;;86.75;75.25;;;;;;;;5037775;28;45396;-68
2021/12/25 14:53:29;;;;;;;;;22.50;22.50;;;;;;;;5038463;28;46375;-68
2021/12/25 14:55:55;;;;;;;;;27.50;22.50;;;;;;;;5035917;28;45486;-68
2021/12/25 14:58:21;;;;;;;;;28.25;24.25;;;;;;;;5040322;28;45453;-68
2021/12/25 15:00:47;;;;;;;;;33.75;29.75;;;;;;;;5038465;28;45470;-68
2021/12/25 15:03:15;;;;;;;;;34.25;29.50;;;;;;;;5041066;28;45510;-68
2021/12/25 15:05:41;;;;;;;;;36.25;30.75;;;;;;;;5038772;28;45521;-67
2021/12/25 15:08:16;;;;;;;;;38.25;31.50;;;;;;;;5035847;28;45531;-68
2021/12/25 15:10:42;;;;;;;;;39.75;33.75;;;;;;;;5035039;28;46871;-67
2021/12/25 15:13:14;;;;;;;;;217.25;191.50;;;;;;;;5040188;28;46687;-67
2021/12/25 15:15:50;;;;;;;;;69.33;53.67;;;;;;;;5021903;28;45380;-68
2021/12/25 15:18:23;;;;;;;;;34.00;31.75;;;;;;;;5035959;28;45598;-63
2021/12/25 15:20:48;;;;;;;;;40.00;32.25;;;;;;;;5037279;28;45590;-64